Aaronsburg, Pennsylvania
Current Conditions -  °F | °C
As of 12:53 PM on Saturday 20 Dec 2014 (Local Time) from KUNV Reporting Station
Overcast Overcast  
Wind Chill: 22°   Ceiling: 1700
Heat Index: 28°   Visibility: 10mi
Dew Point: 19°   Wind: 6mph
Humidity: 69%   Direction: NA
Pressure: 30.22"   Gusts: NA
Location:  40.9°N, 77.45°W
Report Text: KUNV 201753Z VRB05KT 10SM OVC017 M02/M07 A3022
Loading
Personal Weather Stations






























Interactive Weather Map New forecast layout! Learn more

10-Day Weather Forecast

Advertisements
Track Severe Weather on mobile